Etowah, Arkansas
Current Conditions -  °F | °C
As of 3:53 PM on Monday 20 Oct 2014 (Local Time) from KJBR Reporting Station
Clear Clear  
Wind Chill: 73°   Ceiling: Unl
Heat Index: 73°   Visibility: 10mi
Dew Point: 53°   Wind: 12mph
Humidity: 49%   Direction: 270°W
Pressure: 29.99"   Gusts: NA
Location:  35.73°N, 90.23°W
Report Text: KJBR 202053Z AUTO 27010KT 10SM CLR 23/12 A2999 RMK AO2 SLP152 T02280117 55017
Loading
Personal Weather Stations






























Interactive Weather Map
Tropical Storm Tracking
New forecast layout! Learn more

10-Day Weather Forecast

Advertisements
Track Severe Weather on mobile